Time;durP1;ratioP1;P1;durP2;ratioP2;P2;SDS_P1;SDS_P2;PMS_P1;PMS_P2;Temp;Humidity;BMP_temperature;BMP_pressure;BME280_temperature;BME280_humidity;BME280_pressure;Samples;Min_cycle;Max_cycle;Signal;HPM_P1;HPM_P2
2023/06/11 00:02:06;;;;;;;6.75;2.70;;;21.70;99.90;;;;;;6306155;22;20330;-66
2023/06/11 00:04:34;;;;;;;4.97;2.40;;;21.70;99.90;;;;;;6305684;22;20011;-66
2023/06/11 00:07:02;;;;;;;5.22;2.53;;;21.70;99.90;;;;;;6306162;22;20002;-66
2023/06/11 00:09:28;;;;;;;6.05;2.50;;;21.70;99.90;;;;;;6305252;22;20010;-66
2023/06/11 00:11:54;;;;;;;5.30;2.53;;;21.60;99.90;;;;;;6305708;22;19999;-65
2023/06/11 00:14:21;;;;;;;3.50;2.30;;;21.60;99.90;;;;;;6306032;22;20308;-66
2023/06/11 00:16:48;;;;;;;5.35;2.55;;;21.60;99.90;;;;;;6306042;22;20446;-66
2023/06/11 00:19:13;;;;;;;3.72;2.40;;;21.50;99.90;;;;;;6305659;22;20334;-66
2023/06/11 00:21:44;;;;;;;4.18;2.40;;;21.50;99.90;;;;;;6305931;22;20009;-65
2023/06/11 00:24:12;;;;;;;4.20;2.40;;;21.50;99.90;;;;;;6305520;22;20087;-65
2023/06/11 00:26:38;;;;;;;3.50;2.47;;;21.50;99.90;;;;;;6305419;22;20006;-66
2023/06/11 00:29:05;;;;;;;5.18;2.67;;;21.40;99.90;;;;;;6278330;22;20003;-66
2023/06/11 00:31:30;;;;;;;4.85;2.72;;;21.40;99.90;;;;;;6305538;22;20016;-66
2023/06/11 00:33:56;;;;;;;5.05;2.45;;;21.40;99.90;;;;;;6305298;22;20500;-66
2023/06/11 00:36:22;;;;;;;5.93;2.72;;;21.40;99.90;;;;;;6305882;22;19999;-66
2023/06/11 00:38:48;;;;;;;4.07;2.67;;;21.30;99.90;;;;;;6305115;22;20003;-66
2023/06/11 00:41:14;;;;;;;5.47;2.70;;;21.30;99.90;;;;;;6305488;22;20337;-66
2023/06/11 00:43:40;;;;;;;6.35;2.65;;;21.30;99.90;;;;;;6305686;22;20410;-65
2023/06/11 00:46:10;;;;;;;4.88;2.80;;;21.30;99.90;;;;;;6305278;22;20003;-65
2023/06/11 00:48:38;;;;;;;6.32;3.00;;;21.20;99.90;;;;;;6305942;22;20003;-66
2023/06/11 00:51:05;;;;;;;3.97;2.78;;;21.20;99.90;;;;;;6305793;22;20396;-65
2023/06/11 00:53:30;;;;;;;3.60;2.58;;;21.10;99.90;;;;;;6305347;22;20026;-66
2023/06/11 00:55:56;;;;;;;5.45;3.10;;;21.10;99.90;;;;;;6305288;22;20442;-66
2023/06/11 00:58:22;;;;;;;4.55;2.75;;;21.00;99.90;;;;;;6305779;22;19999;-66
2023/06/11 01:00:52;;;;;;;5.72;3.00;;;21.00;99.90;;;;;;6305159;22;20053;-66
2023/06/11 01:03:22;;;;;;;6.05;2.80;;;21.00;99.90;;;;;;6305066;22;20027;-65
2023/06/11 01:06:01;;;;;;;6.30;2.88;;;21.00;99.90;;;;;;6305503;22;20444;-65
2023/06/11 01:08:31;;;;;;;4.20;2.72;;;20.90;99.90;;;;;;6305001;22;20018;-66
2023/06/11 01:10:59;;;;;;;5.57;3.10;;;20.90;99.90;;;;;;6305415;22;20034;-65
2023/06/11 01:13:25;;;;;;;7.93;3.38;;;21.00;99.90;;;;;;6305100;22;20011;-66
2023/06/11 01:15:55;;;;;;;4.85;2.90;;;21.00;99.90;;;;;;6305489;22;20346;-66
2023/06/11 01:18:25;;;;;;;3.95;2.80;;;20.90;99.90;;;;;;6305193;22;20003;-66
2023/06/11 01:21:02;;;;;;;3.75;2.75;;;20.90;99.90;;;;;;6304846;22;19999;-67
2023/06/11 01:23:43;;;;;;;6.47;3.53;;;20.90;99.90;;;;;;6305224;22;20007;-66
2023/06/11 01:26:42;;;;;;;4.88;3.10;;;20.90;99.90;;;;;;6305047;22;20007;-66
2023/06/11 01:29:10;;;;;;;5.15;3.00;;;20.80;99.90;;;;;;6305137;22;20000;-65
2023/06/11 01:31:40;;;;;;;3.50;2.80;;;20.80;99.90;;;;;;6305151;22;20029;-66
2023/06/11 01:34:06;;;;;;;5.03;2.88;;;20.80;99.90;;;;;;6305463;22;20005;-65
2023/06/11 01:36:36;;;;;;;4.47;2.85;;;20.80;99.90;;;;;;6304547;22;20102;-65
2023/06/11 01:39:03;;;;;;;4.47;2.80;;;20.80;99.90;;;;;;6305169;22;20015;-66
2023/06/11 01:41:29;;;;;;;3.70;3.03;;;20.80;99.90;;;;;;6305899;22;19999;-66
2023/06/11 01:43:55;;;;;;;5.10;2.90;;;20.70;99.90;;;;;;6305238;22;20129;-66
2023/06/11 01:46:21;;;;;;;5.35;2.90;;;20.70;99.90;;;;;;6305124;22;20075;-66
2023/06/11 01:48:46;;;;;;;3.70;2.92;;;20.70;99.90;;;;;;6305472;22;20034;-66
2023/06/11 01:51:15;;;;;;;5.78;3.30;;;20.70;99.90;;;;;;6304653;22;20422;-66
2023/06/11 01:53:42;;;;;;;5.18;3.30;;;20.60;99.90;;;;;;6305300;22;20023;-66
2023/06/11 01:56:08;;;;;;;4.55;3.20;;;20.60;99.90;;;;;;6305090;22;20003;-66
2023/06/11 01:58:34;;;;;;;4.10;2.85;;;20.60;99.90;;;;;;6305016;22;20052;-66
2023/06/11 02:01:02;;;;;;;5.32;3.10;;;20.60;99.90;;;;;;6304888;22;20015;-66
2023/06/11 02:03:27;;;;;;;5.63;3.22;;;20.60;99.90;;;;;;6304976;22;20014;-66
2023/06/11 02:05:53;;;;;;;7.10;3.55;;;20.50;99.90;;;;;;6304896;22;20004;-66
2023/06/11 02:08:19;;;;;;;4.40;3.53;;;20.50;99.90;;;;;;6304699;22;20003;-66
2023/06/11 02:10:45;;;;;;;6.68;3.88;;;20.50;99.90;;;;;;6305246;22;20007;-66
2023/06/11 02:13:11;;;;;;;6.97;3.60;;;20.50;99.90;;;;;;6304900;22;20442;-66
2023/06/11 02:15:36;;;;;;;6.57;3.35;;;20.50;99.90;;;;;;6277606;22;20393;-64
2023/06/11 02:18:02;;;;;;;7.13;3.60;;;20.50;99.90;;;;;;6304861;22;20137;-66
2023/06/11 02:20:28;;;;;;;5.82;3.88;;;20.40;99.90;;;;;;6304534;22;20010;-66
2023/06/11 02:22:53;;;;;;;6.97;4.05;;;20.40;99.90;;;;;;6305005;22;20004;-65
2023/06/11 02:25:19;;;;;;;4.32;3.25;;;20.40;99.90;;;;;;6305183;22;20457;-66
2023/06/11 02:27:48;;;;;;;4.93;3.63;;;20.40;99.90;;;;;;6304852;22;20035;-66
2023/06/11 02:30:13;;;;;;;6.10;4.15;;;20.40;99.90;;;;;;6304765;22;20319;-65
2023/06/11 02:32:40;;;;;;;7.63;4.53;;;20.40;99.90;;;;;;6305670;22;20001;-66
2023/06/11 02:35:06;;;;;;;5.68;4.10;;;20.30;99.90;;;;;;6306424;22;20004;-66
2023/06/11 02:37:32;;;;;;;6.10;3.80;;;20.20;99.90;;;;;;6306404;22;20034;-66
2023/06/11 02:39:58;;;;;;;4.65;4.15;;;20.20;99.90;;;;;;6306735;22;19995;-66
2023/06/11 02:42:24;;;;;;;5.18;3.78;;;20.20;99.90;;;;;;6307037;22;20113;-66
2023/06/11 02:44:49;;;;;;;5.68;4.10;;;20.10;99.90;;;;;;6306624;22;20015;-66
2023/06/11 02:47:15;;;;;;;5.28;4.43;;;20.10;99.90;;;;;;6306479;22;20071;-66
2023/06/11 02:49:41;;;;;;;5.25;4.40;;;20.10;99.90;;;;;;6306130;22;20010;-66
2023/06/11 02:52:06;;;;;;;6.80;4.53;;;20.00;99.90;;;;;;6306885;22;19999;-66
2023/06/11 02:54:32;;;;;;;6.75;4.68;;;20.00;99.90;;;;;;6306467;22;20085;-66
2023/06/11 02:56:58;;;;;;;6.13;4.72;;;20.00;99.90;;;;;;6306729;22;20068;-66
2023/06/11 02:59:24;;;;;;;7.22;4.68;;;19.90;99.90;;;;;;6306859;22;20225;-66
2023/06/11 03:01:50;;;;;;;5.95;4.57;;;19.90;99.90;;;;;;6306802;22;19999;-65
2023/06/11 03:04:15;;;;;;;5.07;4.28;;;19.90;99.90;;;;;;6305768;22;20350;-66
2023/06/11 03:06:41;;;;;;;5.78;4.20;;;19.90;99.90;;;;;;6306337;22;20426;-65
2023/06/11 03:09:06;;;;;;;5.50;4.32;;;20.00;99.90;;;;;;6306753;22;20007;-65
2023/06/11 03:11:32;;;;;;;5.38;3.88;;;20.00;99.90;;;;;;6306711;22;20114;-66
2023/06/11 03:13:58;;;;;;;5.80;4.10;;;20.00;99.90;;;;;;6306754;22;20435;-64
2023/06/11 03:16:23;;;;;;;4.85;4.30;;;20.00;99.90;;;;;;6306520;22;20383;-66
2023/06/11 03:18:49;;;;;;;6.03;4.40;;;19.90;99.90;;;;;;6278506;22;20347;-66
2023/06/11 03:21:15;;;;;;;5.82;4.20;;;20.00;99.90;;;;;;6306479;22;20342;-66
2023/06/11 03:23:40;;;;;;;6.65;4.35;;;19.90;99.90;;;;;;6306241;22;20011;-65
2023/06/11 03:26:06;;;;;;;6.03;4.20;;;20.00;99.90;;;;;;6306133;22;20006;-66
2023/06/11 03:28:32;;;;;;;5.88;4.47;;;19.90;99.90;;;;;;6306054;22;20452;-66
2023/06/11 03:30:58;;;;;;;8.30;4.57;;;19.80;99.90;;;;;;6305886;22;20022;-66
2023/06/11 03:33:23;;;;;;;7.38;4.40;;;19.90;99.90;;;;;;6306440;22;20007;-66
2023/06/11 03:35:49;;;;;;;6.13;4.07;;;19.90;99.90;;;;;;6305994;22;19999;-66
2023/06/11 03:38:15;;;;;;;6.68;4.40;;;19.90;99.90;;;;;;6305983;22;20330;-66
2023/06/11 03:40:40;;;;;;;5.38;4.20;;;19.90;99.90;;;;;;6306153;22;19999;-66
2023/06/11 03:43:06;;;;;;;7.10;4.35;;;19.90;99.90;;;;;;6306086;22;20003;-65
2023/06/11 03:45:32;;;;;;;7.78;4.07;;;19.90;99.90;;;;;;6305404;22;20007;-66
2023/06/11 03:47:58;;;;;;;6.00;4.35;;;19.90;99.90;;;;;;6305707;22;20094;-66
2023/06/11 03:50:24;;;;;;;5.05;3.90;;;19.90;99.90;;;;;;6306061;22;20030;-66
2023/06/11 03:52:50;;;;;;;4.82;4.20;;;19.90;99.90;;;;;;6306375;22;19999;-66
2023/06/11 03:55:15;;;;;;;5.28;4.07;;;19.80;99.90;;;;;;6306065;22;20084;-66
2023/06/11 03:57:41;;;;;;;5.32;4.00;;;19.80;99.90;;;;;;6306028;22;20003;-66
2023/06/11 04:00:08;;;;;;;6.65;4.25;;;19.70;99.90;;;;;;6305933;22;20006;-65
2023/06/11 04:02:36;;;;;;;10.65;4.35;;;19.80;99.90;;;;;;6305321;22;20007;-66
2023/06/11 04:05:03;;;;;;;7.13;4.90;;;19.80;99.90;;;;;;6305575;22;20019;-66
2023/06/11 04:07:29;;;;;;;5.90;4.38;;;19.80;99.90;;;;;;6305798;22;20003;-66
2023/06/11 04:09:54;;;;;;;7.25;4.05;;;19.80;99.90;;;;;;6305941;22;19999;-66
2023/06/11 04:12:20;;;;;;;6.32;4.22;;;19.80;99.90;;;;;;6305868;22;20006;-64
2023/06/11 04:14:47;;;;;;;5.88;4.13;;;19.80;99.90;;;;;;6305771;22;20003;-66
2023/06/11 04:17:12;;;;;;;5.85;4.18;;;19.80;99.90;;;;;;6305091;22;20464;-66
2023/06/11 04:19:38;;;;;;;6.45;4.50;;;19.80;99.90;;;;;;6306005;22;19999;-66
2023/06/11 04:22:04;;;;;;;7.55;4.50;;;19.80;99.90;;;;;;6305895;22;20027;-66
2023/06/11 04:24:30;;;;;;;8.57;4.75;;;19.80;99.90;;;;;;6305440;22;20011;-64
2023/06/11 04:26:56;;;;;;;6.57;4.20;;;19.70;99.90;;;;;;6305849;22;20060;-66
2023/06/11 04:29:23;;;;;;;6.10;4.60;;;19.70;99.90;;;;;;6306023;22;20010;-66
2023/06/11 04:31:50;;;;;;;5.68;4.18;;;19.70;99.90;;;;;;6306157;22;20095;-65
2023/06/11 04:34:17;;;;;;;6.75;4.13;;;19.70;99.90;;;;;;6306718;22;20003;-66
2023/06/11 04:36:43;;;;;;;6.32;4.35;;;19.70;99.90;;;;;;6306679;22;20066;-66
2023/06/11 04:39:09;;;;;;;7.18;4.43;;;19.70;99.90;;;;;;6306119;22;20438;-66
2023/06/11 04:41:36;;;;;;;6.13;4.30;;;19.70;99.90;;;;;;6306989;22;20007;-66
2023/06/11 04:44:05;;;;;;;5.55;4.38;;;19.70;99.90;;;;;;6305793;22;20019;-66
2023/06/11 04:46:34;;;;;;;6.55;4.43;;;19.70;99.90;;;;;;6306227;22;20022;-66
2023/06/11 04:49:02;;;;;;;5.93;4.63;;;19.70;99.90;;;;;;6306196;22;20072;-66
2023/06/11 04:51:32;;;;;;;7.53;5.00;;;19.70;99.90;;;;;;6306591;22;20003;-66
2023/06/11 04:54:01;;;;;;;6.90;4.60;;;19.70;99.90;;;;;;6306603;22;20058;-66
2023/06/11 04:56:27;;;;;;;6.50;5.15;;;19.70;99.90;;;;;;6306357;22;20007;-65
2023/06/11 04:58:53;;;;;;;5.90;4.72;;;19.70;99.90;;;;;;6303949;22;20383;-66
2023/06/11 05:01:19;;;;;;;6.75;4.45;;;19.60;99.90;;;;;;6305794;22;20011;-66
2023/06/11 05:03:45;;;;;;;6.22;4.38;;;19.70;99.90;;;;;;6305268;22;20031;-66
2023/06/11 05:06:13;;;;;;;5.57;4.70;;;19.60;99.90;;;;;;6306124;22;20006;-66
2023/06/11 05:08:39;;;;;;;6.07;4.43;;;19.70;99.90;;;;;;6306078;22;20007;-66
2023/06/11 05:11:05;;;;;;;4.97;4.32;;;19.70;99.90;;;;;;6305701;22;20058;-66
2023/06/11 05:13:30;;;;;;;5.97;4.10;;;19.70;99.90;;;;;;6305862;22;20034;-66
2023/06/11 05:15:57;;;;;;;6.35;3.97;;;19.80;99.90;;;;;;6305842;22;20081;-65
2023/06/11 05:18:25;;;;;;;5.63;3.70;;;19.70;99.90;;;;;;6305648;22;20027;-66
2023/06/11 05:20:51;;;;;;;4.82;3.85;;;19.80;99.90;;;;;;6305997;22;20470;-66
2023/06/11 05:23:18;;;;;;;5.07;3.55;;;19.80;99.90;;;;;;6306250;22;20068;-66
2023/06/11 05:25:47;;;;;;;5.15;3.65;;;19.90;99.90;;;;;;6305909;22;20011;-66
2023/06/11 05:28:17;;;;;;;6.90;3.80;;;19.90;99.90;;;;;;6305165;22;20009;-67
2023/06/11 05:30:45;;;;;;;6.18;3.60;;;20.00;99.90;;;;;;6305519;22;20015;-66
2023/06/11 05:33:14;;;;;;;7.03;3.50;;;20.00;99.90;;;;;;6305470;22;20007;-67
2023/06/11 05:35:42;;;;;;;4.45;3.53;;;20.00;99.90;;;;;;6305512;22;20003;-66
2023/06/11 05:38:08;;;;;;;5.25;3.33;;;20.00;99.90;;;;;;6305689;22;20003;-64
2023/06/11 05:40:37;;;;;;;3.40;3.10;;;20.10;99.90;;;;;;6306086;22;20138;-66
2023/06/11 05:43:06;;;;;;;3.92;2.80;;;20.10;99.90;;;;;;6305126;22;19999;-68
2023/06/11 05:45:32;;;;;;;5.90;2.80;;;20.20;99.90;;;;;;6305352;22;20018;-69
2023/06/11 05:47:58;;;;;;;4.03;2.78;;;20.30;99.90;;;;;;6278327;22;20008;-69
2023/06/11 05:50:24;;;;;;;5.40;2.60;;;20.30;99.90;;;;;;6306037;22;20086;-68
2023/06/11 05:52:50;;;;;;;4.38;2.50;;;20.30;99.90;;;;;;6306068;22;20359;-68
2023/06/11 05:55:16;;;;;;;4.00;3.50;;;20.30;99.90;;;;;;6305756;22;20007;-68
2023/06/11 05:57:41;;;;;;;4.38;3.22;;;20.30;99.90;;;;;;6305188;22;19996;-68
2023/06/11 06:00:12;;;;;;;3.85;2.90;;;20.30;99.90;;;;;;6306027;22;20004;-67
2023/06/11 06:02:40;;;;;;;4.20;2.85;;;20.30;99.90;;;;;;6306169;22;20015;-67
2023/06/11 06:05:09;;;;;;;4.05;3.20;;;20.30;99.90;;;;;;6305103;22;20011;-69
2023/06/11 06:07:35;;;;;;;3.60;2.58;;;20.30;99.90;;;;;;6305237;22;20053;-68
2023/06/11 06:10:02;;;;;;;4.25;2.83;;;20.30;99.90;;;;;;6307474;22;20010;-67
2023/06/11 06:12:28;;;;;;;3.88;2.90;;;20.40;99.90;;;;;;6307132;22;20049;-68
2023/06/11 06:14:53;;;;;;;4.72;2.70;;;20.40;99.90;;;;;;6307090;22;20409;-68
2023/06/11 06:17:20;;;;;;;4.10;2.70;;;20.40;99.90;;;;;;6307451;22;20044;-68
2023/06/11 06:19:45;;;;;;;4.72;2.80;;;20.40;99.90;;;;;;6307508;22;20007;-68
2023/06/11 06:22:11;;;;;;;3.42;2.80;;;20.40;99.90;;;;;;6307451;22;19999;-69
2023/06/11 06:24:37;;;;;;;3.60;2.83;;;20.50;99.90;;;;;;6307787;22;20026;-68
2023/06/11 06:27:03;;;;;;;4.75;3.20;;;20.50;99.90;;;;;;6306825;22;20002;-69
2023/06/11 06:29:28;;;;;;;3.88;2.78;;;20.50;99.90;;;;;;6307452;22;20459;-69
2023/06/11 06:31:55;;;;;;;4.68;2.97;;;20.60;99.90;;;;;;6307151;22;20053;-69
2023/06/11 06:34:20;;;;;;;3.88;2.60;;;20.60;99.90;;;;;;6307408;22;20003;-70
2023/06/11 06:36:46;;;;;;;4.18;2.70;;;20.60;99.90;;;;;;6307402;22;20427;-70
2023/06/11 06:39:12;;;;;;;3.70;2.80;;;20.60;99.90;;;;;;6307144;22;20011;-71
2023/06/11 06:41:38;;;;;;;5.82;3.20;;;20.60;99.90;;;;;;6307058;22;20023;-70
2023/06/11 06:44:04;;;;;;;5.25;3.08;;;20.70;99.90;;;;;;6307185;22;20438;-69
2023/06/11 06:46:30;;;;;;;3.75;2.58;;;20.70;99.90;;;;;;6306973;22;19999;-68
2023/06/11 06:48:56;;;;;;;4.13;2.60;;;20.60;99.90;;;;;;6307141;22;20003;-68
2023/06/11 06:51:21;;;;;;;3.60;2.75;;;20.60;99.90;;;;;;6306791;22;20053;-66
2023/06/11 06:53:47;;;;;;;4.85;2.67;;;20.70;99.90;;;;;;6307379;22;20042;-67
2023/06/11 06:56:13;;;;;;;3.65;2.65;;;20.70;99.90;;;;;;6306805;22;20003;-67
2023/06/11 06:58:39;;;;;;;3.30;2.85;;;20.80;99.90;;;;;;6306985;22;20078;-67
2023/06/11 07:01:05;;;;;;;3.90;2.80;;;20.90;99.90;;;;;;6307313;22;20030;-67
2023/06/11 07:03:32;;;;;;;5.20;2.88;;;20.80;99.90;;;;;;6307301;22;20338;-67
2023/06/11 07:05:58;;;;;;;3.40;2.80;;;20.90;99.90;;;;;;6307463;22;20011;-67
2023/06/11 07:08:24;;;;;;;4.88;2.95;;;20.90;99.90;;;;;;6307226;22;20052;-68
2023/06/11 07:10:53;;;;;;;3.38;2.80;;;20.90;99.90;;;;;;6306714;22;20103;-67
2023/06/11 07:13:20;;;;;;;3.33;2.97;;;20.90;99.90;;;;;;6307303;22;20070;-67
2023/06/11 07:15:46;;;;;;;3.33;3.03;;;21.00;99.90;;;;;;6307303;22;20430;-67
2023/06/11 07:18:11;;;;;;;6.25;3.15;;;21.00;99.90;;;;;;6306922;22;19999;-66
2023/06/11 07:20:37;;;;;;;4.88;2.85;;;21.00;99.90;;;;;;6307287;22;20090;-67
2023/06/11 07:23:03;;;;;;;3.10;2.60;;;21.10;99.90;;;;;;6307207;22;19999;-67
2023/06/11 07:25:30;;;;;;;4.15;2.80;;;21.10;99.90;;;;;;6306663;22;20315;-66
2023/06/11 07:27:58;;;;;;;3.88;2.90;;;21.10;99.90;;;;;;6307111;22;20074;-66
2023/06/11 07:30:24;;;;;;;3.85;3.05;;;21.10;99.90;;;;;;6306486;22;20011;-66
2023/06/11 07:32:52;;;;;;;3.75;2.95;;;21.20;99.90;;;;;;6305785;22;20006;-68
2023/06/11 07:35:20;;;;;;;3.95;2.80;;;21.20;99.90;;;;;;6305475;22;20072;-66
2023/06/11 07:37:46;;;;;;;4.20;2.80;;;21.30;99.90;;;;;;6305493;22;20401;-67
2023/06/11 07:40:12;;;;;;;4.28;2.90;;;21.30;99.90;;;;;;6303548;22;20003;-68
2023/06/11 07:42:38;;;;;;;3.90;2.70;;;21.20;99.90;;;;;;6303694;22;20385;-67
2023/06/11 07:45:08;;;;;;;5.03;3.05;;;21.30;99.90;;;;;;6304794;22;20015;-67
2023/06/11 07:47:33;;;;;;;3.72;2.60;;;21.40;99.90;;;;;;6276295;22;20374;-68
2023/06/11 07:49:59;;;;;;;4.38;2.70;;;21.40;99.90;;;;;;6303809;22;20077;-70
2023/06/11 07:52:25;;;;;;;3.92;2.70;;;21.50;99.90;;;;;;6303110;22;19999;-69
2023/06/11 07:54:51;;;;;;;3.03;2.33;;;21.50;99.90;;;;;;6304238;22;20004;-68
2023/06/11 07:57:17;;;;;;;2.65;2.30;;;21.50;99.90;;;;;;6305092;22;20368;-68
2023/06/11 07:59:43;;;;;;;3.22;2.17;;;21.50;99.90;;;;;;6305489;22;20007;-68
2023/06/11 08:02:10;;;;;;;2.42;1.90;;;21.60;99.90;;;;;;6305701;22;20052;-68
2023/06/11 08:04:36;;;;;;;3.08;2.25;;;21.60;99.90;;;;;;6305310;22;20007;-67
2023/06/11 08:07:03;;;;;;;3.15;2.00;;;21.70;99.90;;;;;;6304746;22;20006;-67
2023/06/11 08:09:29;;;;;;;4.15;1.85;;;21.80;99.90;;;;;;6306048;22;20003;-68
2023/06/11 08:11:55;;;;;;;2.53;1.80;;;21.80;99.90;;;;;;6305522;22;20003;-67
2023/06/11 08:14:21;;;;;;;2.13;1.70;;;21.90;99.90;;;;;;6305045;22;20005;-67
2023/06/11 08:16:47;;;;;;;3.65;1.75;;;21.90;99.90;;;;;;6304982;22;20056;-67
2023/06/11 08:19:13;;;;;;;2.20;1.73;;;22.00;99.90;;;;;;6305147;22;20003;-68
2023/06/11 08:21:40;;;;;;;1.80;1.52;;;22.00;99.90;;;;;;6305352;22;20007;-66
2023/06/11 08:24:07;;;;;;;2.03;1.58;;;22.10;99.90;;;;;;6305148;22;20003;-66
2023/06/11 08:26:33;;;;;;;3.38;1.77;;;22.00;99.90;;;;;;6304653;22;20010;-68
2023/06/11 08:29:00;;;;;;;2.33;1.67;;;22.00;99.90;;;;;;6305343;22;20003;-67
2023/06/11 08:31:26;;;;;;;2.45;1.60;;;22.10;99.90;;;;;;6245487;22;1380211;-68
2023/06/11 08:33:52;;;;;;;2.30;1.60;;;22.10;99.90;;;;;;6306899;22;20468;-67
2023/06/11 08:36:18;;;;;;;1.45;1.35;;;22.20;99.90;;;;;;6305831;22;20026;-68
2023/06/11 08:38:45;;;;;;;3.67;1.50;;;22.30;99.90;;;;;;6306210;22;19999;-68
2023/06/11 08:41:11;;;;;;;2.38;1.35;;;22.30;99.90;;;;;;6306080;22;20007;-68
2023/06/11 08:43:38;;;;;;;3.05;1.70;;;22.30;99.90;;;;;;6306112;22;19996;-67
2023/06/11 08:46:04;;;;;;;3.22;1.63;;;22.40;99.90;;;;;;6306532;22;20068;-67
2023/06/11 08:48:35;;;;;;;3.80;1.40;;;22.50;99.90;;;;;;6306518;22;19999;-67
2023/06/11 08:51:03;;;;;;;3.10;1.38;;;22.50;99.90;;;;;;6305714;22;20330;-66
2023/06/11 08:53:30;;;;;;;2.15;1.50;;;22.60;99.90;;;;;;6306305;22;19999;-68
2023/06/11 08:55:56;;;;;;;1.83;1.40;;;22.60;99.90;;;;;;6306173;22;20010;-67
2023/06/11 08:58:22;;;;;;;1.60;1.20;;;22.70;99.90;;;;;;6306216;22;20000;-67
2023/06/11 09:00:48;;;;;;;2.08;1.25;;;22.70;99.90;;;;;;6306467;22;20093;-67
2023/06/11 09:03:15;;;;;;;3.42;1.75;;;22.80;99.90;;;;;;6306528;22;19999;-68
2023/06/11 09:05:43;;;;;;;2.00;1.50;;;22.90;99.90;;;;;;6305693;22;20003;-67
2023/06/11 09:08:08;;;;;;;1.73;1.30;;;22.90;99.90;;;;;;6306180;22;20322;-67
2023/06/11 09:10:46;;;;;;;4.38;1.50;;;22.90;99.90;;;;;;6306106;22;20004;-66
2023/06/11 09:13:11;;;;;;;1.67;1.40;;;22.90;99.90;;;;;;6305920;22;19999;-67
2023/06/11 09:15:45;;;;;;;3.35;1.58;;;22.90;99.90;;;;;;6305873;22;20412;-69
2023/06/11 09:18:11;;;;;;;2.15;1.40;;;23.00;99.90;;;;;;6306221;22;20003;-68
2023/06/11 09:20:37;;;;;;;2.25;1.30;;;23.00;99.90;;;;;;6306073;22;20026;-68
2023/06/11 09:23:02;;;;;;;3.47;1.50;;;23.10;99.90;;;;;;6306084;22;20071;-69
2023/06/11 09:25:31;;;;;;;1.73;1.33;;;23.20;99.90;;;;;;6305673;22;20011;-68
2023/06/11 09:28:05;;;;;;;3.45;1.73;;;23.20;99.90;;;;;;6306742;22;19999;-69
2023/06/11 09:30:31;;;;;;;2.42;1.70;;;23.20;99.90;;;;;;6305693;22;20473;-67
2023/06/11 09:32:57;;;;;;;1.90;1.20;;;23.30;99.90;;;;;;6306358;22;20000;-66
2023/06/11 09:35:22;;;;;;;1.42;1.20;;;23.30;99.90;;;;;;6305111;22;20476;-67
2023/06/11 09:37:50;;;;;;;3.40;1.35;;;23.20;99.90;;;;;;6305289;22;20084;-67
2023/06/11 09:40:18;;;;;;;2.45;1.50;;;23.30;99.90;;;;;;6305758;22;20493;-67
2023/06/11 09:42:45;;;;;;;2.10;1.30;;;23.30;99.90;;;;;;6306524;22;20334;-67
2023/06/11 09:45:16;;;;;;;2.15;1.33;;;23.40;99.90;;;;;;6307512;22;20014;-67
2023/06/11 09:47:47;;;;;;;2.70;1.60;;;23.50;99.90;;;;;;6308044;22;20505;-67
2023/06/11 09:50:15;;;;;;;2.55;1.60;;;23.50;99.90;;;;;;6308281;22;20057;-67
2023/06/11 09:52:42;;;;;;;1.58;1.20;;;23.60;99.90;;;;;;6307704;22;20086;-66
2023/06/11 09:55:09;;;;;;;3.53;1.42;;;23.60;99.90;;;;;;6308038;22;20007;-66
2023/06/11 09:57:40;;;;;;;1.95;1.30;;;23.60;99.90;;;;;;6308361;22;20053;-67
2023/06/11 10:00:11;;;;;;;3.10;1.30;;;23.70;99.90;;;;;;6308462;22;20007;-66
2023/06/11 10:02:41;;;;;;;3.30;1.50;;;23.80;99.90;;;;;;6308175;22;20014;-67
2023/06/11 10:05:10;;;;;;;2.85;1.42;;;23.80;99.90;;;;;;6307548;22;20015;-66
2023/06/11 10:07:44;;;;;;;1.38;1.17;;;23.80;99.90;;;;;;6307510;22;20057;-67
2023/06/11 10:10:12;;;;;;;3.83;1.35;;;23.80;99.90;;;;;;6307964;22;20076;-67
2023/06/11 10:12:38;;;;;;;10.15;4.78;;;23.90;99.90;;;;;;6307131;22;20027;-67
2023/06/11 10:15:09;;;;;;;3.17;1.45;;;24.00;99.90;;;;;;6307156;22;20406;-67
2023/06/11 10:17:35;;;;;;;2.25;1.60;;;24.00;99.90;;;;;;6307314;22;20033;-66
2023/06/11 10:20:01;;;;;;;3.15;1.65;;;24.00;99.90;;;;;;6307516;22;20046;-66
2023/06/11 10:22:35;;;;;;;2.85;1.52;;;24.10;99.90;;;;;;6307179;22;20007;-65
2023/06/11 10:25:02;;;;;;;2.10;1.55;;;24.20;99.90;;;;;;6306975;22;20011;-67
2023/06/11 10:27:40;;;;;;;2.80;1.50;;;24.30;99.90;;;;;;6306804;22;20057;-66
2023/06/11 10:30:07;;;;;;;2.42;1.42;;;24.30;99.90;;;;;;6307500;22;20014;-66
2023/06/11 10:32:33;;;;;;;2.83;1.63;;;24.30;99.90;;;;;;6306649;22;20011;-66
2023/06/11 10:35:03;;;;;;;2.20;1.50;;;24.40;99.90;;;;;;6306363;22;20010;-66
2023/06/11 10:37:28;;;;;;;3.70;1.67;;;24.50;99.90;;;;;;6306230;22;19995;-67
2023/06/11 10:39:54;;;;;;;3.55;1.50;;;24.60;99.90;;;;;;6307186;22;20073;-67
2023/06/11 10:42:37;;;;;;;4.00;1.50;;;24.60;99.90;;;;;;6307000;22;20000;-67
2023/06/11 10:45:13;;;;;;;4.80;1.50;;;24.70;99.90;;;;;;6306928;22;20011;-68
2023/06/11 10:47:47;;;;;;;3.65;1.40;;;24.70;99.90;;;;;;6306890;22;20363;-68
2023/06/11 10:50:15;;;;;;;3.08;1.50;;;24.90;99.90;;;;;;6307718;22;20010;-68
2023/06/11 10:53:04;;;;;;;2.50;1.60;;;25.00;99.90;;;;;;6307316;22;20003;-69
2023/06/11 10:55:32;;;;;;;2.88;1.80;;;25.10;99.90;;;;;;6307368;22;19999;-69
2023/06/11 10:57:59;;;;;;;2.28;1.30;;;25.20;99.90;;;;;;6307313;22;20330;-68
2023/06/11 11:00:32;;;;;;;2.03;1.50;;;25.30;99.90;;;;;;6306886;22;20338;-68
2023/06/11 11:03:03;;;;;;;4.05;1.80;;;25.40;99.90;;;;;;6306678;22;20069;-69
2023/06/11 11:05:29;;;;;;;1.48;1.38;;;25.50;99.90;;;;;;6306048;22;20011;-67
2023/06/11 11:07:55;;;;;;;2.60;1.50;;;25.40;99.90;;;;;;6307757;22;20000;-68
2023/06/11 11:10:25;;;;;;;2.72;1.40;;;25.70;99.90;;;;;;6306875;22;20060;-67
2023/06/11 11:12:52;;;;;;;2.78;1.67;;;25.70;99.90;;;;;;6306683;22;19995;-68
2023/06/11 11:15:18;;;;;;;3.17;1.55;;;25.80;99.90;;;;;;6307458;22;20026;-70
2023/06/11 11:17:45;;;;;;;9.57;1.95;;;25.80;99.90;;;;;;6306320;22;20011;-69
2023/06/11 11:20:13;;;;;;;14.18;2.60;;;25.50;99.90;;;;;;6306954;22;20008;-65
2023/06/11 11:25:37;;;;;;;24.08;3.13;;;24.90;99.90;;;;;;5089178;27;20427;-62
2023/06/11 11:28:04;;;;;;;270.95;25.33;;;25.40;99.90;;;;;;5089672;28;20036;-62
2023/06/11 11:30:29;;;;;;;288.48;27.60;;;25.70;99.90;;;;;;5089188;28;20021;-62
2023/06/11 11:32:58;;;;;;;30.42;4.25;;;25.90;99.90;;;;;;5089353;28;20062;-62
2023/06/11 11:35:26;;;;;;;4.50;1.85;;;26.00;99.90;;;;;;5080735;28;20035;-62
2023/06/11 11:37:54;;;;;;;4.88;1.50;;;26.10;99.90;;;;;;5069298;28;20040;-62
2023/06/11 11:40:23;;;;;;;2.85;1.52;;;26.30;99.90;;;;;;5069604;28;20397;-62
2023/06/11 11:42:49;;;;;;;2.88;1.40;;;26.40;99.90;;;;;;5069000;28;20032;-62
2023/06/11 11:45:16;;;;;;;2.97;1.35;;;26.50;99.90;;;;;;5068595;28;20493;-62
2023/06/11 11:47:44;;;;;;;2.25;1.48;;;26.60;99.90;;;;;;5069030;28;20060;-62
2023/06/11 11:50:21;;;;;;;4.55;1.48;;;26.60;99.90;;;;;;5068813;28;20032;-62
2023/06/11 11:53:02;;;;;;;2.80;1.10;;;26.60;99.90;;;;;;5069566;28;20028;-62
2023/06/11 11:55:32;;;;;;;1.63;1.20;;;26.60;99.90;;;;;;5067412;28;20045;-62
2023/06/11 11:58:05;;;;;;;2.40;1.52;;;26.60;99.90;;;;;;5068855;28;20048;-63
2023/06/11 12:00:31;;;;;;;3.53;1.42;;;26.60;99.90;;;;;;5068591;28;20492;-63
2023/06/11 12:03:06;;;;;;;4.15;1.70;;;26.60;99.90;;;;;;5068978;28;20039;-63
2023/06/11 12:05:32;;;;;;;4.22;1.98;;;26.70;99.90;;;;;;5068468;28;20032;-63
2023/06/11 12:07:58;;;;;;;4.10;1.75;;;26.50;99.90;;;;;;5068705;28;20389;-62
2023/06/11 12:10:26;;;;;;;5.43;1.90;;;26.50;99.90;;;;;;5068668;28;20028;-62
2023/06/11 12:12:55;;;;;;;5.38;1.88;;;26.40;99.90;;;;;;5068569;28;20031;-63
2023/06/11 12:15:21;;;;;;;3.10;1.70;;;26.60;99.90;;;;;;5067927;28;20046;-63
2023/06/11 12:17:46;;;;;;;4.93;2.00;;;26.40;99.90;;;;;;5068651;28;20116;-62
2023/06/11 12:20:12;;;;;;;4.45;1.92;;;26.60;99.90;;;;;;5067909;28;20425;-63
2023/06/11 12:22:38;;;;;;;6.15;1.73;;;26.20;99.90;;;;;;5067589;28;20033;-63
2023/06/11 12:25:05;;;;;;;4.20;1.80;;;25.70;99.90;;;;;;5071410;28;20048;-63
2023/06/11 12:27:31;;;;;;;5.95;1.88;;;25.50;99.90;;;;;;5087954;28;20044;-63
2023/06/11 12:29:57;;;;;;;9.07;2.40;;;25.40;99.90;;;;;;5088117;28;20472;-63
2023/06/11 12:32:24;;;;;;;5.40;2.22;;;25.30;99.90;;;;;;5088173;28;20024;-63
2023/06/11 12:34:51;;;;;;;4.47;1.90;;;25.20;99.90;;;;;;5086585;28;20032;-63
2023/06/11 12:37:17;;;;;;;4.65;2.00;;;25.30;99.90;;;;;;5074256;28;20012;-62
2023/06/11 12:39:43;;;;;;;5.93;2.20;;;25.50;99.90;;;;;;5074654;28;20535;-62
2023/06/11 12:42:10;;;;;;;8.77;2.50;;;25.50;99.90;;;;;;5074546;28;20397;-63
2023/06/11 12:44:36;;;;;;;7.03;2.13;;;25.80;99.90;;;;;;5074160;28;20055;-63
2023/06/11 12:47:02;;;;;;;4.22;1.80;;;25.80;99.90;;;;;;5074234;28;20476;-62
2023/06/11 12:49:29;;;;;;;5.85;2.13;;;25.70;99.90;;;;;;5074973;28;20397;-63